Time;durP1;ratioP1;P1;durP2;ratioP2;P2;SDS_P1;SDS_P2;PMS_P1;PMS_P2;Temp;Humidity;BMP_temperature;BMP_pressure;BME280_temperature;BME280_humidity;BME280_pressure;Samples;Min_cycle;Max_cycle;Signal;HPM_P1;HPM_P2
2023/05/25 00:00:53;;;;;;;16.90;7.30;;;;;;;12.50;76.77;101772.41;4898911;29;20496;-70
2023/05/25 00:03:28;;;;;;;14.07;6.53;;;;;;;13.06;75.27;101778.78;4895527;29;20412;-70
2023/05/25 00:06:00;;;;;;;9.90;7.57;;;;;;;13.37;73.18;101779.22;4897046;29;20513;-69
2023/05/25 00:08:30;;;;;;;10.20;5.90;;;;;;;13.39;72.88;101779.88;4893117;29;20466;-70
2023/05/25 00:10:59;;;;;;;12.90;6.77;;;;;;;13.31;72.81;101780.03;4905608;29;20409;-69
2023/05/25 00:13:28;;;;;;;10.23;7.00;;;;;;;13.22;73.44;101786.66;4901328;29;20420;-70
2023/05/25 00:15:57;;;;;;;10.77;6.73;;;;;;;12.70;75.43;101780.75;4898009;29;20437;-69
2023/05/25 00:18:27;;;;;;;12.87;7.30;;;;;;;12.93;74.49;101778.66;4897147;29;20445;-70
2023/05/25 00:20:57;;;;;;;13.47;5.50;;;;;;;13.06;74.57;101784.22;4898241;29;20865;-69
2023/05/25 00:23:26;;;;;;;10.50;5.17;;;;;;;13.04;73.97;101787.13;4897692;29;20413;-70
2023/05/25 00:25:56;;;;;;;7.53;5.27;;;;;;;13.09;74.00;101786.53;4899814;29;20436;-71
2023/05/25 00:28:25;;;;;;;12.80;6.47;;;;;;;12.89;75.36;101783.66;4900143;29;20948;-70
2023/05/25 00:30:54;;;;;;;13.87;6.87;;;;;;;13.38;73.49;101780.06;4912188;29;20423;-70
2023/05/25 00:33:23;;;;;;;12.07;6.87;;;;;;;13.22;72.83;101788.53;4906270;29;20463;-70
2023/05/25 00:35:55;;;;;;;10.37;6.80;;;;;;;13.84;71.86;101781.19;4906292;29;20441;-69
2023/05/25 00:38:26;;;;;;;7.97;5.30;;;;;;;13.84;71.18;101780.34;4898067;29;20517;-70
2023/05/25 00:40:56;;;;;;;7.63;5.37;;;;;;;13.34;72.41;101773.38;4898067;29;20893;-70
2023/05/25 00:43:25;;;;;;;10.73;6.17;;;;;;;13.52;72.38;101773.69;4899048;29;20405;-69
2023/05/25 00:45:56;;;;;;;9.97;5.90;;;;;;;13.46;71.43;101769.88;4898541;29;20448;-69
2023/05/25 00:48:26;;;;;;;11.00;6.40;;;;;;;13.18;73.97;101776.38;4900168;29;20559;-71
2023/05/25 00:50:58;;;;;;;8.43;5.77;;;;;;;12.70;74.23;101773.44;4898267;29;20438;-71
2023/05/25 00:53:32;;;;;;;8.90;7.10;;;;;;;13.16;74.50;101770.31;4895715;29;20512;-69
2023/05/25 00:56:05;;;;;;;8.73;6.23;;;;;;;13.84;70.81;101777.63;4912229;29;20425;-68
2023/05/25 00:58:36;;;;;;;11.37;6.13;;;;;;;13.79;70.39;101771.97;4908297;29;20398;-69
2023/05/25 01:01:10;;;;;;;11.13;6.40;;;;;;;13.45;72.32;101770.94;4897446;29;20430;-69
2023/05/25 01:03:44;;;;;;;14.20;7.30;;;;;;;13.70;71.48;101767.72;4901774;29;20519;-69
2023/05/25 01:06:16;;;;;;;7.67;5.97;;;;;;;13.82;70.92;101768.81;4901280;29;20495;-70
2023/05/25 01:08:51;;;;;;;11.13;7.03;;;;;;;13.29;72.22;101776.69;4903032;29;20942;-70
2023/05/25 01:11:26;;;;;;;10.43;6.47;;;;;;;13.27;72.67;101776.03;4896195;29;20532;-69
2023/05/25 01:13:58;;;;;;;9.33;5.60;;;;;;;13.65;71.49;101770.22;4897095;29;20426;-70
2023/05/25 01:16:28;;;;;;;8.83;5.80;;;;;;;13.44;72.04;101769.25;4897164;29;20456;-70
2023/05/25 01:18:58;;;;;;;8.53;5.80;;;;;;;13.34;72.59;101767.94;4896147;29;20444;-69
2023/05/25 01:21:40;;;;;;;8.70;6.63;;;;;;;13.44;71.75;101777.41;4905025;29;20525;-70
2023/05/25 01:24:21;;;;;;;8.33;5.83;;;;;;;13.66;71.82;101780.88;4906357;29;20536;-69
2023/05/25 01:26:58;;;;;;;10.70;5.53;;;;;;;13.41;71.89;101775.06;4897256;29;20401;-70
2023/05/25 01:29:28;;;;;;;7.20;5.93;;;;;;;13.30;73.16;101767.50;4900133;29;21030;-70
2023/05/25 01:31:59;;;;;;;6.43;5.37;;;;;;;13.40;72.08;101775.28;4913826;29;20485;-69
2023/05/25 01:34:30;;;;;;;9.70;6.50;;;;;;;13.71;71.21;101780.28;4886373;29;20529;-70
2023/05/25 01:37:02;;;;;;;11.83;6.07;;;;;;;13.72;71.29;101776.50;4901100;29;20447;-70
2023/05/25 01:39:31;;;;;;;8.50;5.43;;;;;;;13.41;71.64;101779.66;4901334;29;20912;-70
2023/05/25 01:42:02;;;;;;;11.10;6.33;;;;;;;13.32;71.79;101786.31;4899752;29;20452;-70
2023/05/25 01:44:31;;;;;;;10.97;5.60;;;;;;;13.12;72.57;101783.44;4909774;29;20565;-69
2023/05/25 01:47:05;;;;;;;12.43;6.50;;;;;;;13.04;73.79;101783.56;4907655;29;20456;-70
2023/05/25 01:49:43;;;;;;;7.33;5.73;;;;;;;12.97;73.61;101779.97;4900135;29;20441;-69
2023/05/25 01:52:19;;;;;;;11.80;6.67;;;;;;;12.82;74.74;101780.03;4910049;29;20439;-70
2023/05/25 01:54:52;;;;;;;7.27;5.27;;;;;;;12.73;75.42;101778.47;4901339;29;20456;-71
2023/05/25 01:57:22;;;;;;;9.77;5.47;;;;;;;12.90;74.93;101777.19;4899637;29;20465;-70
2023/05/25 01:59:52;;;;;;;10.50;7.37;;;;;;;12.87;75.67;101782.19;4900844;29;20438;-69
2023/05/25 02:02:22;;;;;;;11.60;5.70;;;;;;;12.73;75.65;101780.38;4899428;29;20440;-69
2023/05/25 02:04:53;;;;;;;8.23;6.27;;;;;;;13.01;74.08;101778.53;4899332;29;20470;-70
2023/05/25 02:07:25;;;;;;;12.20;6.60;;;;;;;12.63;75.84;101778.00;4900206;29;20517;-70
2023/05/25 02:09:54;;;;;;;12.13;6.23;;;;;;;12.21;77.41;101770.63;4907122;29;20466;-71
2023/05/25 02:12:23;;;;;;;10.00;6.23;;;;;;;12.63;77.20;101770.66;4900520;29;20478;-69
2023/05/25 02:14:52;;;;;;;11.03;6.57;;;;;;;12.86;75.03;101767.75;4899218;29;20477;-70
2023/05/25 02:17:21;;;;;;;8.20;6.27;;;;;;;12.86;74.92;101765.03;4909087;29;20479;-69
2023/05/25 02:19:51;;;;;;;12.20;6.40;;;;;;;12.94;75.02;101772.19;4911608;29;20486;-70
2023/05/25 02:22:21;;;;;;;6.70;6.10;;;;;;;12.11;76.93;101775.53;4906041;29;20437;-70
2023/05/25 02:24:51;;;;;;;8.33;5.90;;;;;;;12.26;77.80;101770.91;4898984;29;20561;-70
2023/05/25 02:27:20;;;;;;;17.23;6.00;;;;;;;12.93;75.54;101773.22;4903971;29;20429;-70
2023/05/25 02:29:58;;;;;;;14.27;6.97;;;;;;;12.54;76.15;101782.69;4899973;29;20451;-69
2023/05/25 02:32:30;;;;;;;7.53;5.83;;;;;;;12.26;76.99;101783.63;4893900;29;20429;-69
2023/05/25 02:34:59;;;;;;;10.93;5.70;;;;;;;12.17;77.67;101780.19;4899707;29;20600;-69
2023/05/25 02:37:28;;;;;;;6.83;5.47;;;;;;;12.06;78.29;101789.66;4900993;29;20441;-69
2023/05/25 02:39:59;;;;;;;6.87;6.00;;;;;;;12.24;77.58;101789.28;4913313;29;20427;-69
2023/05/25 02:42:28;;;;;;;8.60;5.43;;;;;;;12.01;79.29;101788.53;4905962;29;20479;-69
2023/05/25 02:44:59;;;;;;;9.50;5.80;;;;;;;11.96;78.99;101785.56;4899521;29;20465;-70
2023/05/25 02:47:28;;;;;;;16.10;7.20;;;;;;;12.51;77.98;101785.78;4903303;29;20465;-71
2023/05/25 02:49:57;;;;;;;8.70;5.57;;;;;;;12.56;77.62;101785.22;4908052;29;20465;-71
2023/05/25 02:52:26;;;;;;;8.83;6.20;;;;;;;12.35;77.41;101783.31;4899784;29;20473;-69
2023/05/25 02:54:55;;;;;;;14.47;6.77;;;;;;;11.91;78.72;101780.72;4900587;29;20436;-69
2023/05/25 02:57:32;;;;;;;7.77;6.20;;;;;;;11.82;80.56;101781.00;4909008;29;20458;-69
2023/05/25 03:00:02;;;;;;;9.53;6.10;;;;;;;12.19;79.97;101778.16;4892436;29;20432;-70
2023/05/25 03:02:31;;;;;;;7.23;5.50;;;;;;;12.34;77.66;101786.25;4898401;29;20445;-70
2023/05/25 03:05:00;;;;;;;11.60;6.23;;;;;;;12.33;77.59;101784.56;4898124;29;20482;-69
2023/05/25 03:07:33;;;;;;;9.00;5.87;;;;;;;11.91;78.53;101775.28;4899103;29;20449;-69
2023/05/25 03:10:02;;;;;;;11.07;6.70;;;;;;;12.27;78.43;101783.44;4899265;29;20477;-70
2023/05/25 03:12:32;;;;;;;13.30;7.03;;;;;;;11.66;81.55;101777.44;4899457;29;20852;-69
2023/05/25 03:15:01;;;;;;;14.90;7.33;;;;;;;12.51;78.10;101777.66;4898127;29;20456;-69
2023/05/25 03:17:30;;;;;;;7.67;6.20;;;;;;;13.20;75.37;101782.47;4913814;29;20446;-70
2023/05/25 03:19:59;;;;;;;14.30;6.00;;;;;;;13.01;74.58;101792.13;4897868;29;20434;-69
2023/05/25 03:22:28;;;;;;;9.80;5.90;;;;;;;13.33;73.88;101794.28;4900731;29;20420;-69
2023/05/25 03:24:58;;;;;;;13.93;5.70;;;;;;;13.33;73.61;101794.28;4897744;29;20445;-70
2023/05/25 03:27:27;;;;;;;7.50;6.63;;;;;;;13.36;73.61;101796.56;4899622;29;20443;-69
2023/05/25 03:29:57;;;;;;;13.00;6.70;;;;;;;13.11;74.08;101794.50;4899196;29;20851;-70
2023/05/25 03:32:27;;;;;;;10.10;5.53;;;;;;;13.22;73.55;101792.09;4906358;29;20438;-70
2023/05/25 03:34:56;;;;;;;7.50;6.20;;;;;;;13.24;74.05;101800.06;4899572;29;20955;-69
2023/05/25 03:37:26;;;;;;;12.10;6.20;;;;;;;13.37;73.43;101800.97;4900065;29;20417;-70
2023/05/25 03:39:55;;;;;;;8.00;5.13;;;;;;;13.62;72.72;101795.06;4900034;29;20980;-69
2023/05/25 03:42:24;;;;;;;8.40;5.90;;;;;;;13.88;72.24;101800.66;4899560;29;20965;-70
2023/05/25 03:44:53;;;;;;;8.57;6.70;;;;;;;14.72;68.44;101803.88;4897937;29;20441;-69
2023/05/25 03:47:23;;;;;;;8.10;6.30;;;;;;;15.96;64.04;101799.38;4899896;29;20428;-69
2023/05/25 03:49:53;;;;;;;10.97;5.80;;;;;;;15.75;63.40;101797.78;4899122;29;20454;-69
2023/05/25 03:52:22;;;;;;;10.73;6.13;;;;;;;15.81;64.27;101796.91;4909180;29;20472;-68
2023/05/25 03:54:51;;;;;;;9.10;6.30;;;;;;;16.24;62.36;101802.63;4902026;29;20441;-69
2023/05/25 03:57:20;;;;;;;8.23;5.63;;;;;;;16.25;61.92;101806.19;4903843;29;20566;-70
2023/05/25 03:59:49;;;;;;;9.97;6.03;;;;;;;16.61;60.48;101817.34;4907177;29;20416;-69
2023/05/25 04:02:18;;;;;;;9.50;5.70;;;;;;;16.66;60.71;101823.00;4901732;29;20533;-69
2023/05/25 04:04:50;;;;;;;10.13;6.10;;;;;;;16.92;59.33;101820.09;4898675;29;20903;-69
2023/05/25 04:07:20;;;;;;;7.70;6.00;;;;;;;17.11;59.21;101825.63;4897329;29;20422;-69
2023/05/25 04:09:49;;;;;;;11.73;6.60;;;;;;;16.93;59.36;101827.25;4898869;29;20469;-70
2023/05/25 04:12:18;;;;;;;13.33;6.93;;;;;;;16.07;61.25;101832.28;4898513;29;20425;-70
2023/05/25 04:14:47;;;;;;;11.83;7.50;;;;;;;14.95;65.16;101833.50;4902459;29;21040;-69
2023/05/25 04:17:16;;;;;;;12.83;8.50;;;;;;;14.18;68.30;101826.56;4890764;29;20413;-69
2023/05/25 04:20:14;;;;;;;9.37;7.60;;;;;;;15.32;66.26;101819.22;4898288;29;20768;-69
2023/05/25 04:22:43;;;;;;;11.53;7.70;;;;;;;16.80;60.85;101821.84;4912255;29;20425;-70
2023/05/25 04:25:13;;;;;;;10.10;7.33;;;;;;;17.05;59.96;101826.50;4901209;29;20466;-70
2023/05/25 04:27:45;;;;;;;15.10;9.13;;;;;;;17.49;58.25;101836.44;4904876;29;20500;-70
2023/05/25 04:30:16;;;;;;;16.10;8.30;;;;;;;16.85;59.44;101841.16;4903632;29;20961;-70
2023/05/25 04:33:03;;;;;;;11.07;6.50;;;;;;;17.61;57.69;101845.63;4897027;29;20504;-69
2023/05/25 04:35:42;;;;;;;7.73;5.60;;;;;;;18.21;55.83;101841.16;4912990;29;20447;-69
2023/05/25 04:38:16;;;;;;;11.97;7.33;;;;;;;18.23;55.69;101839.03;4914306;29;20448;-69
2023/05/25 04:40:46;;;;;;;12.10;6.93;;;;;;;18.71;54.73;101844.53;4901855;29;20431;-71
2023/05/25 04:43:17;;;;;;;13.37;7.40;;;;;;;19.27;53.37;101845.97;4895631;29;20467;-69
2023/05/25 04:45:47;;;;;;;15.17;6.67;;;;;;;19.28;53.67;101851.22;4893688;29;20991;-70
2023/05/25 04:48:16;;;;;;;10.73;6.90;;;;;;;19.24;52.93;101843.69;4901410;29;20446;-69
2023/05/25 04:50:46;;;;;;;18.77;7.30;;;;;;;19.29;53.03;101841.91;4896814;29;20555;-69
2023/05/25 04:53:16;;;;;;;14.30;9.03;;;;;;;20.04;51.47;101836.56;4899828;29;20455;-70
2023/05/25 04:55:45;;;;;;;12.57;9.53;;;;;;;19.81;51.72;101837.41;4891598;29;20777;-69
2023/05/25 04:58:14;;;;;;;8.40;6.70;;;;;;;20.12;50.80;101830.69;4896357;29;20420;-70
2023/05/25 05:03:38;;;;;;;17.93;9.63;;;;;;;20.54;50.09;101844.19;4891116;29;21248;-68
2023/05/25 05:06:10;;;;;;;11.40;8.87;;;;;;;20.47;49.25;101827.84;4878100;29;20478;-70
2023/05/25 05:08:41;;;;;;;17.97;9.03;;;;;;;20.15;50.63;101835.69;4899596;29;20425;-67
2023/05/25 05:11:10;;;;;;;15.73;8.27;;;;;;;19.04;52.77;101836.63;4881160;29;20791;-69
2023/05/25 05:13:39;;;;;;;20.47;9.77;;;;;;;18.41;55.07;101838.16;4899224;29;20424;-68
2023/05/25 05:16:08;;;;;;;14.97;9.00;;;;;;;17.88;56.85;101827.03;4878728;29;20573;-70
2023/05/25 05:18:38;;;;;;;17.67;10.70;;;;;;;18.02;57.00;101829.38;4880802;29;20441;-69
2023/05/25 05:21:08;;;;;;;15.63;10.50;;;;;;;18.48;55.76;101838.94;4880745;29;20450;-70
2023/05/25 05:23:37;;;;;;;11.67;9.07;;;;;;;19.73;52.80;101834.19;4885190;29;20459;-69
2023/05/25 05:26:09;;;;;;;15.73;8.67;;;;;;;19.49;52.77;101841.63;4880734;29;20448;-70
2023/05/25 05:28:39;;;;;;;14.60;10.70;;;;;;;19.00;54.03;101842.81;4891307;29;20425;-69
2023/05/25 05:31:08;;;;;;;15.43;9.30;;;;;;;17.69;58.17;101846.19;4877378;29;20903;-68
2023/05/25 05:33:38;;;;;;;15.63;10.73;;;;;;;16.28;62.92;101852.19;4878598;29;20847;-68
2023/05/25 05:36:09;;;;;;;14.53;10.17;;;;;;;15.61;66.40;101857.00;4877201;29;20974;-69
2023/05/25 05:38:40;;;;;;;20.97;11.40;;;;;;;15.04;69.57;101857.59;4896974;29;20425;-70
2023/05/25 05:41:12;;;;;;;18.40;11.30;;;;;;;14.94;70.35;101859.91;4891451;29;20451;-69
2023/05/25 05:43:44;;;;;;;17.23;9.80;;;;;;;15.67;67.75;101854.47;4881386;29;20414;-69
2023/05/25 05:46:13;;;;;;;18.37;10.60;;;;;;;15.60;68.53;101862.66;4882567;29;20459;-70
2023/05/25 05:48:42;;;;;;;17.73;10.00;;;;;;;15.16;69.79;101866.84;4886744;29;20809;-68
2023/05/25 05:51:13;;;;;;;13.83;9.37;;;;;;;15.09;70.96;101863.28;4882962;29;20469;-70
2023/05/25 05:53:42;;;;;;;17.63;8.93;;;;;;;15.19;69.96;101866.44;4881899;29;20498;-68
2023/05/25 05:56:18;;;;;;;19.13;9.93;;;;;;;15.34;69.84;101862.66;4878717;29;20474;-70
2023/05/25 05:58:50;;;;;;;15.73;8.23;;;;;;;15.60;69.65;101863.50;4825139;29;20458;-70
2023/05/25 06:01:49;;;;;;;20.03;10.30;;;;;;;15.86;68.34;101865.34;4863177;29;20531;-67
2023/05/25 06:04:24;;;;;;;18.43;10.67;;;;;;;15.94;67.61;101870.56;4859023;29;20513;-69
2023/05/25 06:06:54;;;;;;;13.07;7.70;;;;;;;16.13;66.64;101868.81;4867792;29;20414;-68
2023/05/25 06:09:23;;;;;;;12.07;8.67;;;;;;;15.86;67.31;101876.28;4856600;29;20552;-69
2023/05/25 06:11:52;;;;;;;16.87;9.10;;;;;;;15.85;67.27;101880.03;4863900;29;20451;-68
2023/05/25 06:14:21;;;;;;;14.97;8.77;;;;;;;15.79;67.61;101871.84;4863084;29;20429;-68
2023/05/25 06:16:50;;;;;;;17.50;8.67;;;;;;;16.13;66.78;101877.03;4863217;29;20415;-70
2023/05/25 06:19:19;;;;;;;14.93;9.00;;;;;;;16.14;66.52;101877.88;4862823;29;20429;-68
2023/05/25 06:21:49;;;;;;;13.60;8.90;;;;;;;16.31;65.78;101873.63;4867365;29;20440;-68
2023/05/25 06:24:23;;;;;;;21.13;8.30;;;;;;;16.22;66.47;101877.63;4865969;29;20417;-69
2023/05/25 06:26:52;;;;;;;12.67;8.90;;;;;;;16.43;65.69;101882.78;4860908;29;20410;-68
2023/05/25 06:29:22;;;;;;;13.90;9.33;;;;;;;16.32;65.80;101886.19;4867102;29;20425;-69
2023/05/25 06:31:51;;;;;;;15.80;8.90;;;;;;;16.21;66.75;101878.69;4871879;29;20460;-70
2023/05/25 06:34:20;;;;;;;21.87;12.70;;;;;;;16.74;65.41;101879.31;4860917;29;20953;-69
2023/05/25 06:36:49;;;;;;;13.33;8.53;;;;;;;16.84;64.77;101880.53;4858580;29;20410;-70
2023/05/25 06:39:19;;;;;;;13.40;8.63;;;;;;;16.81;64.24;101886.41;4860593;29;20471;-68
2023/05/25 06:41:53;;;;;;;13.37;7.73;;;;;;;16.91;64.10;101881.31;4860223;29;20883;-67
2023/05/25 06:44:31;;;;;;;16.67;8.20;;;;;;;16.68;63.72;101889.22;4874271;29;20496;-70
2023/05/25 06:47:09;;;;;;;12.50;7.53;;;;;;;16.73;63.55;101886.69;4859291;29;21034;-69
2023/05/25 06:49:37;;;;;;;14.13;8.07;;;;;;;16.94;63.50;101885.50;4859758;29;20767;-70
2023/05/25 06:52:07;;;;;;;13.80;8.17;;;;;;;17.05;62.99;101889.41;4862611;29;20879;-69
2023/05/25 06:54:36;;;;;;;13.47;7.70;;;;;;;17.28;61.93;101892.44;4861250;29;20506;-69
2023/05/25 06:57:08;;;;;;;12.83;8.53;;;;;;;17.12;61.89;101890.22;4858527;29;20510;-67
2023/05/25 06:59:37;;;;;;;13.83;7.93;;;;;;;17.33;61.88;101889.88;4859207;29;20889;-68
2023/05/25 07:02:06;;;;;;;12.40;6.40;;;;;;;17.53;61.86;101895.97;4859413;29;20463;-67
2023/05/25 07:04:38;;;;;;;14.10;8.97;;;;;;;17.58;60.46;101887.94;4861677;29;20449;-69
2023/05/25 07:07:08;;;;;;;15.63;9.70;;;;;;;17.81;60.54;101893.63;4860529;29;20815;-68
2023/05/25 07:09:40;;;;;;;15.10;8.50;;;;;;;17.65;60.13;101894.22;4860340;29;20414;-70
2023/05/25 07:12:10;;;;;;;12.87;6.67;;;;;;;17.43;58.80;101901.13;4862472;29;20450;-69
2023/05/25 07:14:39;;;;;;;16.53;7.27;;;;;;;17.44;58.73;101893.75;4860859;29;20442;-68
2023/05/25 07:17:08;;;;;;;12.47;5.70;;;;;;;17.18;58.37;101898.38;4861782;29;20452;-68
2023/05/25 07:19:37;;;;;;;17.60;8.20;;;;;;;17.37;59.01;101891.09;4859961;29;20418;-69
2023/05/25 07:22:07;;;;;;;13.33;5.97;;;;;;;17.72;58.71;101894.16;4871602;29;20782;-68
2023/05/25 07:24:36;;;;;;;9.23;6.23;;;;;;;17.69;57.82;101897.34;4863551;29;21005;-68
2023/05/25 07:27:05;;;;;;;13.73;8.50;;;;;;;17.96;56.87;101900.69;4863708;29;20475;-68
2023/05/25 07:29:36;;;;;;;13.70;6.03;;;;;;;18.04;55.20;101903.94;4864193;29;20418;-69
2023/05/25 07:32:05;;;;;;;9.83;5.83;;;;;;;18.15;55.47;101902.38;4859521;29;20476;-66
2023/05/25 07:34:35;;;;;;;11.83;6.20;;;;;;;18.25;54.72;101888.94;4866907;29;20437;-67
2023/05/25 07:37:04;;;;;;;10.10;5.93;;;;;;;18.12;54.88;101911.03;4861679;29;20467;-68
2023/05/25 07:39:34;;;;;;;9.40;5.63;;;;;;;18.21;54.39;101906.91;4861820;29;20488;-70
2023/05/25 07:42:03;;;;;;;11.07;4.60;;;;;;;17.94;51.49;101903.63;4862293;29;20480;-67
2023/05/25 07:44:32;;;;;;;10.53;5.90;;;;;;;17.81;53.35;101912.00;4864523;29;20430;-68
2023/05/25 07:47:02;;;;;;;9.80;5.27;;;;;;;17.81;53.59;101915.53;4863231;29;20407;-70
2023/05/25 07:49:31;;;;;;;10.43;5.30;;;;;;;17.76;53.21;101907.19;4870548;29;20406;-68
2023/05/25 07:52:02;;;;;;;14.50;6.20;;;;;;;18.37;52.76;101909.03;4865293;29;20444;-67
2023/05/25 07:54:31;;;;;;;8.67;5.07;;;;;;;18.89;50.70;101923.16;4860822;29;20447;-68
2023/05/25 07:57:00;;;;;;;9.47;4.57;;;;;;;18.93;50.35;101918.88;4863386;29;20410;-69
2023/05/25 07:59:29;;;;;;;7.17;4.10;;;;;;;18.48;49.20;101916.50;4857726;29;20467;-67
2023/05/25 08:02:03;;;;;;;8.40;4.87;;;;;;;18.34;50.05;101915.00;4860034;29;20434;-71
2023/05/25 08:04:34;;;;;;;6.97;5.00;;;;;;;18.50;48.83;101919.84;4856916;29;20544;-71
2023/05/25 08:07:03;;;;;;;9.23;5.03;;;;;;;18.00;49.57;101921.06;4857907;29;20794;-72
2023/05/25 08:09:32;;;;;;;6.30;3.83;;;;;;;17.80;49.61;101924.00;4858565;29;20507;-71
2023/05/25 08:12:01;;;;;;;8.00;5.20;;;;;;;17.97;49.85;101922.34;4857556;29;20501;-71
2023/05/25 08:14:50;;;;;;;7.00;4.50;;;;;;;18.30;49.31;101919.22;4865106;29;20441;-72
2023/05/25 08:17:21;;;;;;;10.07;5.00;;;;;;;18.44;49.41;101920.78;4859393;29;20414;-68
2023/05/25 08:19:50;;;;;;;12.23;4.40;;;;;;;19.00;47.25;101920.47;4859151;29;20439;-69
2023/05/25 08:22:19;;;;;;;10.07;4.87;;;;;;;19.34;47.70;101915.31;4857818;29;20850;-70
2023/05/25 08:24:48;;;;;;;7.83;4.07;;;;;;;19.51;46.09;101908.06;4867557;29;20556;-70
2023/05/25 08:27:18;;;;;;;7.13;3.90;;;;;;;18.79;47.18;101912.75;4856464;29;20444;-71
2023/05/25 08:29:47;;;;;;;10.13;4.50;;;;;;;18.33;47.83;101913.31;4858830;29;20427;-69
2023/05/25 08:32:16;;;;;;;6.07;3.97;;;;;;;18.82;47.64;101922.44;4856849;29;20447;-68
2023/05/25 08:34:46;;;;;;;10.63;3.90;;;;;;;19.70;47.17;101911.59;4859332;29;20496;-69
2023/05/25 08:37:15;;;;;;;9.90;4.40;;;;;;;19.89;45.14;101902.16;4855901;29;20436;-66
2023/05/25 08:39:44;;;;;;;6.40;4.30;;;;;;;20.57;44.53;101910.56;4861288;29;20450;-68
2023/05/25 08:42:13;;;;;;;5.67;4.20;;;;;;;20.52;43.88;101907.69;4857606;29;20450;-69
2023/05/25 08:44:42;;;;;;;7.10;5.00;;;;;;;20.13;46.26;101913.97;4857550;29;20460;-66
2023/05/25 08:47:14;;;;;;;10.23;5.80;;;;;;;20.05;46.98;101900.56;4852999;29;20449;-68
2023/05/25 08:49:49;;;;;;;8.30;4.73;;;;;;;19.52;47.00;101916.09;4863791;29;20497;-66
2023/05/25 08:52:23;;;;;;;7.07;3.83;;;;;;;19.92;45.87;101907.16;4869023;29;20464;-69
2023/05/25 08:54:55;;;;;;;7.20;4.33;;;;;;;19.62;45.80;101922.91;4866147;29;20480;-66
2023/05/25 08:57:37;;;;;;;11.70;4.70;;;;;;;18.67;47.41;101922.84;4858845;29;20414;-66
2023/05/25 09:00:09;;;;;;;5.37;4.23;;;;;;;18.57;48.42;101920.63;4862524;29;20459;-66
2023/05/25 09:02:45;;;;;;;9.60;4.73;;;;;;;18.69;48.56;101917.13;4857970;29;20429;-65
2023/05/25 09:05:16;;;;;;;8.47;4.70;;;;;;;19.58;47.23;101924.44;4857818;29;20446;-67
2023/05/25 09:07:46;;;;;;;9.60;5.13;;;;;;;19.77;46.08;101921.38;4859541;29;20442;-65
2023/05/25 09:10:16;;;;;;;8.20;5.63;;;;;;;19.92;45.91;101913.50;4858894;29;20471;-65
2023/05/25 09:12:45;;;;;;;14.40;5.67;;;;;;;19.98;45.44;101921.84;4859593;29;20495;-65
2023/05/25 09:15:14;;;;;;;9.27;3.90;;;;;;;19.79;45.01;101919.22;4858439;29;20552;-68
2023/05/25 09:17:43;;;;;;;7.07;5.43;;;;;;;19.91;44.74;101921.97;4859889;29;20450;-68
2023/05/25 09:20:15;;;;;;;9.57;4.97;;;;;;;20.11;44.66;101922.44;4863685;29;20451;-66
2023/05/25 09:22:45;;;;;;;6.10;4.90;;;;;;;19.60;43.65;101930.56;4861705;29;21022;-67
2023/05/25 09:25:18;;;;;;;6.77;4.30;;;;;;;19.98;43.24;101921.84;4859661;29;20797;-69
2023/05/25 09:27:49;;;;;;;10.63;4.70;;;;;;;20.14;43.99;101927.44;4859098;29;20532;-65
2023/05/25 09:30:18;;;;;;;9.83;5.00;;;;;;;19.93;43.79;101925.31;4857526;29;20417;-68
2023/05/25 09:32:47;;;;;;;11.13;6.07;;;;;;;19.75;46.16;101939.97;4856424;29;20489;-68
2023/05/25 09:35:17;;;;;;;9.47;5.73;;;;;;;19.72;47.45;101931.38;4859194;29;20837;-66
2023/05/25 09:37:47;;;;;;;13.27;7.77;;;;;;;19.83;47.67;101930.56;4857960;29;20419;-67
2023/05/25 09:40:17;;;;;;;11.47;6.37;;;;;;;19.56;47.31;101926.63;4858312;29;20520;-67
2023/05/25 09:42:46;;;;;;;11.30;6.30;;;;;;;19.28;48.32;101935.47;4857719;29;20491;-66
2023/05/25 09:45:16;;;;;;;11.50;8.30;;;;;;;19.85;47.52;101929.25;4858140;29;20440;-67
2023/05/25 09:47:45;;;;;;;8.20;5.40;;;;;;;19.98;47.23;101933.69;4858174;29;20806;-67
2023/05/25 09:50:16;;;;;;;6.30;5.00;;;;;;;19.78;44.96;101930.44;4854982;29;20796;-67
2023/05/25 09:52:46;;;;;;;7.13;4.73;;;;;;;19.35;45.76;101936.22;4855037;29;20497;-66
2023/05/25 09:55:16;;;;;;;6.70;5.27;;;;;;;19.88;44.88;101936.19;4855529;29;20998;-68
2023/05/25 09:57:45;;;;;;;7.83;5.23;;;;;;;20.67;43.74;101940.97;4861322;29;20983;-65
2023/05/25 10:00:15;;;;;;;6.43;4.63;;;;;;;20.92;42.58;101935.16;4860429;29;20500;-70
2023/05/25 10:02:44;;;;;;;9.47;4.30;;;;;;;20.08;42.60;101944.91;4857526;29;20446;-65
2023/05/25 10:05:13;;;;;;;8.40;4.30;;;;;;;19.88;43.93;101945.25;4858271;29;21046;-66
2023/05/25 10:07:45;;;;;;;8.60;5.23;;;;;;;19.87;45.38;101940.00;4858061;29;20409;-65
2023/05/25 10:10:15;;;;;;;11.90;5.93;;;;;;;19.85;46.44;101945.72;4860494;29;20426;-68
2023/05/25 10:12:46;;;;;;;12.43;6.50;;;;;;;19.64;47.67;101942.75;4860481;29;20438;-66
2023/05/25 10:15:16;;;;;;;13.77;6.73;;;;;;;19.53;47.83;101945.22;4859508;29;20927;-66
2023/05/25 10:17:52;;;;;;;11.67;5.60;;;;;;;19.70;48.71;101945.38;4857467;29;20459;-68
2023/05/25 10:20:23;;;;;;;12.40;6.87;;;;;;;19.28;48.51;101944.53;4857582;29;20428;-68
2023/05/25 10:23:04;;;;;;;8.60;5.97;;;;;;;18.57;50.17;101952.69;4858853;29;20441;-65
2023/05/25 10:25:38;;;;;;;6.07;5.47;;;;;;;18.81;50.35;101953.66;4859191;29;20485;-65
2023/05/25 10:28:14;;;;;;;9.73;5.90;;;;;;;19.16;48.81;101956.56;4858472;29;20444;-64
2023/05/25 10:30:44;;;;;;;14.50;5.43;;;;;;;19.42;47.41;101950.66;4855744;29;20523;-65
2023/05/25 10:33:13;;;;;;;11.63;4.90;;;;;;;19.50;46.39;101950.34;4854988;29;20956;-66
2023/05/25 10:35:44;;;;;;;7.47;5.90;;;;;;;19.56;45.93;101957.63;4856049;29;20484;-67
2023/05/25 10:38:35;;;;;;;8.23;5.43;;;;;;;19.69;45.78;101948.34;4856789;29;22051;-66
2023/05/25 10:41:05;;;;;;;10.60;5.60;;;;;;;20.13;45.63;101944.19;4856832;29;21084;-65
2023/05/25 10:43:35;;;;;;;8.10;5.67;;;;;;;20.67;45.01;101940.16;4865100;29;20543;-65
2023/05/25 10:46:04;;;;;;;4.90;4.47;;;;;;;21.11;44.36;101941.28;4855929;29;20436;-66
2023/05/25 10:48:37;;;;;;;10.67;5.40;;;;;;;21.01;42.94;101941.13;4855873;29;20411;-67
2023/05/25 10:51:06;;;;;;;6.30;5.00;;;;;;;20.91;43.40;101944.50;4856299;29;20415;-64
2023/05/25 10:53:45;;;;;;;6.43;4.97;;;;;;;20.70;43.61;101936.94;4853975;29;20428;-65
2023/05/25 10:56:14;;;;;;;8.10;5.40;;;;;;;20.35;44.21;101937.00;4858537;29;20550;-66
2023/05/25 10:58:46;;;;;;;11.67;5.87;;;;;;;20.59;44.55;101938.63;4862965;29;20452;-66
2023/05/25 11:01:16;;;;;;;9.03;5.77;;;;;;;20.15;45.48;101934.59;4857758;29;20447;-68
2023/05/25 11:03:56;;;;;;;7.73;5.17;;;;;;;20.61;45.19;101941.13;4820214;29;1160719;-68
2023/05/25 11:06:55;;;;;;;7.63;5.10;;;;;;;20.00;45.75;101942.50;4860764;29;20218;-68
2023/05/25 11:09:30;;;;;;;11.50;6.03;;;;;;;20.32;45.43;101938.34;4846985;29;20805;-70
2023/05/25 11:12:05;;;;;;;11.53;7.07;;;;;;;20.49;45.23;101934.81;4855606;29;20417;-68
2023/05/25 11:14:37;;;;;;;8.73;5.57;;;;;;;21.26;44.42;101947.09;4858808;29;20574;-67
2023/05/25 11:17:09;;;;;;;8.07;5.40;;;;;;;20.49;45.06;101929.31;4860060;29;20426;-67
2023/05/25 11:19:47;;;;;;;8.03;6.13;;;;;;;21.01;44.45;101932.88;4861082;29;20432;-68
2023/05/25 11:22:20;;;;;;;6.70;4.97;;;;;;;21.49;43.84;101935.13;4927236;23;20503;-70
2023/05/25 11:24:52;;;;;;;8.00;5.37;;;;;;;21.81;43.33;101935.38;4915884;29;20821;-71
2023/05/25 11:27:23;;;;;;;9.97;7.40;;;;;;;21.86;42.88;101936.28;4914937;29;20421;-70
2023/05/25 11:29:53;;;;;;;13.27;5.30;;;;;;;21.25;43.00;101934.44;4917446;29;20491;-68
2023/05/25 11:32:23;;;;;;;6.67;4.83;;;;;;;20.75;44.14;101939.78;4929584;29;20536;-69
2023/05/25 11:34:53;;;;;;;14.93;5.80;;;;;;;21.64;43.44;101943.63;4916833;29;20970;-70
2023/05/25 11:37:24;;;;;;;7.30;5.83;;;;;;;21.55;43.43;101942.38;4916164;29;20522;-70
2023/05/25 11:39:54;;;;;;;12.80;6.00;;;;;;;21.59;43.85;101941.63;4913690;29;20889;-70